This is the latest recevied weather packets stored in our database for station/object KD0RIH. If no packets are shown the sender has not sent any weather packets the latest 10 day(s).
| Time | Temp. | Humidity | Pressure | Rain* | Wind** | Luminosity | Snow |
|---|---|---|---|---|---|---|---|
| 1777741732 | 20.56° C | 24% | 1021.3 hPa | 0 mm | - | 963 W/m² | - |
| 1777741428 | 21.11° C | 24% | 1021.3 hPa | 0 mm | - | 963 W/m² | - |
| 1777741124 | 20.56° C | 25% | 1021.3 hPa | 0 mm | - | 953 W/m² | - |
| 1777740822 | 19.44° C | 27% | 1021.2 hPa | 0 mm | - | 950 W/m² | - |
| 1777740518 | 17.78° C | 30% | 1021.4 hPa | 0 mm | - | 940 W/m² | - |
| 1777740215 | 20.56° C | 25% | 1021.4 hPa | 0 mm | - | 938 W/m² | - |
| 1777739911 | 21.11° C | 24% | 1021.4 hPa | 0 mm | - | 927 W/m² | - |
| 1777739608 | 20° C | 28% | 1021.4 hPa | 0 mm | - | 922 W/m² | - |
| 1777739306 | 20.56° C | 25% | 1021.3 hPa | 0 mm | - | 918 W/m² | - |
| 1777739002 | 20° C | 26% | 1021.5 hPa | 0 mm | - | 896 W/m² | - |
| 1777738699 | 20° C | 26% | 1021.5 hPa | 0 mm | - | 891 W/m² | - |
| 1777738395 | 19.44° C | 25% | 1021.4 hPa | 0 mm | - | 883 W/m² | - |
| 1777738093 | 20° C | 25% | 1021.5 hPa | 0 mm | - | 871 W/m² | - |
| 1777737792 | 20° C | 25% | 1021.3 hPa | 0 mm | - | 859 W/m² | - |
| 1777737490 | 20° C | 26% | 1021.6 hPa | 0 mm | - | 850 W/m² | - |
| 1777737188 | 19.44° C | 26% | 1021.5 hPa | 0 mm | - | 838 W/m² | - |
| 1777736883 | 19.44° C | 27% | 1021.6 hPa | 0 mm | - | 832 W/m² | - |
| 1777736270 | 18.33° C | 28% | 1021.5 hPa | 0 mm | - | 802 W/m² | - |
| 1777735966 | 18.33° C | 28% | 1021.4 hPa | 0 mm | - | 792 W/m² | - |
| 1777735663 | 18.33° C | 28% | 1021.3 hPa | 0 mm | - | 776 W/m² | - |
| 1777735361 | 18.33° C | 29% | 1021.3 hPa | 0 mm | - | 761 W/m² | - |
| 1777735058 | 17.78° C | 31% | 1021.4 hPa | 0 mm | - | 745 W/m² | - |
| 1777734755 | 17.78° C | 32% | 1021.3 hPa | 0 mm | - | 729 W/m² | - |
| 1777734453 | 17.22° C | 33% | 1021.4 hPa | 0 mm | - | 711 W/m² | - |
| 1777734149 | 17.22° C | 37% | 1021.4 hPa | 0 mm | - | 696 W/m² | - |
* Rain latest hour (hover to see other rain measurements)
** Current wind speed in m/s (hover to see current wind gust speed)